ADDS METAR Data INFO
IDs: Format: Raw Decoded Include TAF

Data at: 0302 UTC 17 Jan 2018

KPVJ 170255Z AUTO 35003KT 10SM CLR M10/M18 A3074 RMK AO2 T11051184
KPVJ 170235Z AUTO 34004KT 10SM CLR M11/M18 A3074 RMK AO2 T11071182
KPVJ 170215Z AUTO 33005KT 10SM CLR M10/M18 A3073 RMK AO2 T11041183
KPVJ 170155Z AUTO 34005KT 10SM CLR M10/M18 A3074 RMK AO2 T11001185
KPVJ 170135Z AUTO 34004KT 10SM CLR M10/M18 A3072 RMK AO2 T10981185
KPVJ 170115Z AUTO 33004KT 10SM CLR M10/M19 A3072 RMK AO2 T10961187
KPVJ 170055Z AUTO 33003KT 10SM CLR M09/M19 A3072 RMK AO2 T10921190
KPVJ 170035Z AUTO 33004KT 10SM CLR M09/M19 A3072 RMK AO2 T10901190
KPVJ 170015Z AUTO 34004KT 10SM CLR M09/M19 A3072 RMK AO2 T10871192
KPVJ 162355Z AUTO 33004KT 10SM CLR M08/M19 A3071 RMK AO2 T10821194 11061 21082
KPVJ 162335Z AUTO 34007KT 10SM CLR M08/M19 A3071 RMK AO2 T10761195
KPVJ 162315Z AUTO 34007KT 10SM CLR M07/M19 A3072 RMK AO2 T10731195
KPVJ 162255Z AUTO 33009KT 10SM CLR M07/M20 A3072 RMK AO2 T10701196
KPVJ 162235Z AUTO 35012KT 10SM CLR M07/M19 A3072 RMK AO2 T10671195
KPVJ 162215Z AUTO 35011KT 10SM CLR M06/M19 A3072 RMK AO2 T10651194
KPVJ 162155Z AUTO 34010G15KT 10SM CLR M07/M19 A3073 RMK AO2 T10661194
KPVJ 162135Z AUTO 34011KT 10SM CLR M06/M19 A3072 RMK AO2 T10651192
KPVJ 162115Z AUTO 36012G17KT 310V020 10SM CLR M06/M19 A3072 RMK AO2 T10621191
KPVJ 162055Z AUTO 34011G17KT 10SM CLR M06/M19 A3072 RMK AO2 T10641188
KPVJ 162035Z AUTO 33013G17KT 10SM CLR M06/M18 A3073 RMK AO2 T10631185
KPVJ 162015Z AUTO 35011G21KT 10SM CLR M07/M19 A3073 RMK AO2 T10681189
KPVJ 161955Z AUTO 36011G18KT 10SM CLR M06/M18 A3073 RMK AO2 T10641185
KPVJ 161935Z AUTO 33011G16KT 10SM CLR M07/M19 A3074 RMK AO2 T10691187
KPVJ 161915Z AUTO 32015G20KT 10SM CLR M07/M19 A3075 RMK AO2 T10731191
KPVJ 161855Z AUTO 35013G18KT 10SM CLR M07/M19 A3076 RMK AO2 T10751191
KPVJ 161835Z AUTO 33012G16KT 10SM CLR M07/M19 A3078 RMK AO2 T10741190
KPVJ 161815Z AUTO 33010G18KT 10SM CLR M08/M19 A3080 RMK AO2 T10761192
KPVJ 161755Z AUTO 34013G20KT 10SM CLR M08/M19 A3081 RMK AO2 T10771189 11077 21135
KPVJ 161735Z AUTO 34012KT 10SM CLR M08/M19 A3082 RMK AO2 T10821191
KPVJ 161715Z AUTO 34011KT 10SM CLR M09/M19 A3083 RMK AO2 T10911192
KPVJ 161655Z AUTO 34012KT 10SM CLR M10/M19 A3084 RMK AO2 T10971194
KPVJ 161635Z AUTO 35009G19KT 10SM CLR M10/M19 A3084 RMK AO2 T10981194
KPVJ 161615Z AUTO 01015G18KT 10SM CLR M10/M19 A3084 RMK AO2 T11011195
KPVJ 161555Z AUTO 36016G22KT 10SM CLR M11/M19 A3084 RMK AO2 T11081195
KPVJ 161535Z AUTO 01013G18KT 10SM CLR M11/M19 A3084 RMK AO2 T11131193
KPVJ 161515Z AUTO 35014KT 10SM CLR M12/M19 A3083 RMK AO2 T11181193
KPVJ 161455Z AUTO 35010KT 10SM CLR M12/M19 A3083 RMK AO2 T11211191
KPVJ 161435Z AUTO 36014G18KT 10SM CLR M13/M19 A3083 RMK AO2 T11261194
KPVJ 161415Z AUTO 36011KT 10SM CLR M13/M19 A3082 RMK AO2 T11301192
KPVJ 161355Z AUTO 36010KT 10SM CLR M13/M19 A3081 RMK AO2 T11351195
KPVJ 161335Z AUTO 36014G17KT 10SM CLR M13/M19 A3081 RMK AO2 T11351190
KPVJ 161315Z AUTO 36009KT 10SM CLR M13/M19 A3081 RMK AO2 T11321190
KPVJ 161255Z AUTO 36008KT 10SM CLR M13/M19 A3081 RMK AO2 T11331190
KPVJ 161235Z AUTO 36009KT 10SM CLR M13/M19 A3079 RMK AO2 T11311191
KPVJ 161215Z AUTO 01008KT 10SM CLR M13/M19 A3079 RMK AO2 T11301194
KPVJ 161155Z AUTO 01009KT 10SM CLR M13/M19 A3078 RMK AO2 T11301195 11080 21130
KPVJ 161135Z AUTO 01007KT 10SM CLR M13/M19 A3078 RMK AO2 T11261195
KPVJ 161115Z AUTO 01013KT 10SM CLR M12/M20 A3077 RMK AO2 T11241197
KPVJ 161055Z AUTO 01015G19KT 10SM CLR M12/M20 A3076 RMK AO2 T11201200
KPVJ 161035Z AUTO 36012G21KT 10SM CLR M12/M20 A3076 RMK AO2 T11181201
KPVJ 161015Z AUTO 36015G21KT 10SM CLR M11/M20 A3076 RMK AO2 T11131197
KPVJ 160955Z AUTO 36015G24KT 10SM CLR M11/M19 A3075 RMK AO2 T11101195
KPVJ 160935Z AUTO 01013G19KT 10SM CLR M11/M18 A3075 RMK AO2 T11081185
KPVJ 160915Z AUTO 01015G18KT 10SM CLR M10/M18 A3074 RMK AO2 T11021182
KPVJ 160855Z AUTO 36015G20KT 10SM CLR M10/M18 A3072 RMK AO2 T11001180
KPVJ 160835Z AUTO 36017G24KT 10SM CLR M10/M18 A3072 RMK AO2 T10961182
KPVJ 160815Z AUTO 01016G23KT 10SM SCT120 M09/M18 A3071 RMK AO2 T10911181
KPVJ 160755Z AUTO 01015G22KT 10SM OVC120 M09/M17 A3071 RMK AO2 T10871175
KPVJ 160735Z AUTO 36016G24KT 10SM OVC120 M08/M17 A3071 RMK AO2 T10841172
KPVJ 160715Z AUTO 36015G23KT 10SM OVC120 M08/M16 A3071 RMK AO2 T10801160
KPVJ 160655Z AUTO 36012G17KT 10SM BKN120 M08/M15 A3071 RMK AO2 T10811152
KPVJ 160635Z AUTO 36011G16KT 10SM SCT120 M08/M15 A3070 RMK AO2 T10831150
KPVJ 160615Z AUTO 36010KT 10SM CLR M08/M15 A3070 RMK AO2 T10831150
KPVJ 160555Z AUTO 01010G17KT 10SM CLR M08/M15 A3071 RMK AO2 T10851152 11023 21085 400691085
KPVJ 160535Z AUTO 36010G17KT 10SM CLR M08/M15 A3070 RMK AO2 T10831155
KPVJ 160515Z AUTO 36016G21KT 10SM SCT095 SCT120 M08/M16 A3068 RMK AO2 T10811157
KPVJ 160455Z AUTO 36014G21KT 10SM BKN095 OVC120 M08/M16 A3068 RMK AO2 T10771160
KPVJ 160435Z AUTO 01020G29KT 10SM OVC095 M07/M17 A3068 RMK AO2 T10751166
KPVJ 160415Z AUTO 36019G32KT 10SM OVC095 M07/M17 A3068 RMK AO2 T10741172
KPVJ 160355Z AUTO 36016G22KT 10SM OVC085 M07/M17 A3067 RMK AO2 T10701167
KPVJ 160335Z AUTO 36017G23KT 10SM OVC085 M06/M16 A3066 RMK AO2 T10641157
KPVJ 160315Z AUTO 36017G24KT 10SM OVC085 M06/M16 A3065 RMK AO2 T10611159
KPVJ 160255Z AUTO 36015G25KT 10SM OVC085 M06/M15 A3064 RMK AO2 T10601155
KPVJ 160235Z AUTO 36017G26KT 10SM OVC085 M06/M15 A3063 RMK AO2 T10571153
KPVJ 160215Z AUTO 35012G18KT 10SM OVC085 M05/M14 A3062 RMK AO2 T10541140
KPVJ 160155Z AUTO 36018G23KT 10SM OVC085 M05/M14 A3061 RMK AO2 T10501140
KPVJ 160135Z AUTO 35015G19KT 10SM OVC085 M05/M13 A3060 RMK AO2 T10461132
KPVJ 160115Z AUTO 35016G20KT 10SM OVC075 M04/M12 A3059 RMK AO2 T10431116
KPVJ 160055Z AUTO 36014G23KT 10SM SCT027 OVC075 M04/M10 A3058 RMK AO2 T10381100
KPVJ 160035Z AUTO 36016G22KT 10SM SCT028 OVC075 M03/M09 A3057 RMK AO2 T10331095
KPVJ 160015Z AUTO 36014G22KT 10SM OVC075 M03/M09 A3056 RMK AO2 T10281092
KPVJ 152355Z AUTO 36016G23KT 10SM OVC065 M02/M09 A3054 RMK AO2 T10211093 10051 21021
KPVJ 152335Z AUTO 02017G24KT 10SM OVC065 M02/M09 A3053 RMK AO2 T10161093
KPVJ 152315Z AUTO 36017G22KT 10SM OVC065 M01/M10 A3051 RMK AO2 T10101103
KPVJ 152255Z AUTO 36015G22KT 10SM BKN065 00/M12 A3050 RMK AO2 T10021116
KPVJ 152235Z AUTO 01016G21KT 10SM SCT029 OVC055 00/M09 A3048 RMK AO2 T00041092
KPVJ 152215Z AUTO 36018G25KT 10SM BKN031 OVC055 01/M06 A3047 RMK AO2 T00091062
KPVJ 152155Z AUTO 02019G23KT 10SM BKN031 OVC055 01/M06 A3046 RMK AO2 T00131065
KPVJ 152135Z AUTO 02016G24KT 10SM SCT025 BKN031 OVC055 02/M06 A3045 RMK AO2 T00171059
KPVJ 152115Z AUTO 02013G21KT 10SM BKN024 OVC029 02/M04 A3044 RMK AO2 T00221041
KPVJ 152055Z AUTO 01016G19KT 10SM OVC024 02/M03 A3043 RMK AO2 T00171029
KPVJ 152035Z AUTO 03011G19KT 10SM OVC026 03/M03 A3043 RMK AO2 T00261029
KPVJ 152015Z AUTO 02013G18KT 10SM OVC026 03/M03 A3041 RMK AO2 T00301026
KPVJ 151955Z AUTO 03013G21KT 10SM OVC024 03/M02 A3041 RMK AO2 T00321021
KPVJ 151935Z AUTO 04013G19KT 10SM OVC024 03/M02 A3040 RMK AO2 T00341016
KPVJ 151915Z AUTO 04013G20KT 10SM OVC026 04/M01 A3040 RMK AO2 T00381012
KPVJ 151855Z AUTO 03016G24KT 10SM OVC028 05/M01 A3039 RMK AO2 T00451012
KPVJ 151835Z AUTO 04012G22KT 10SM OVC026 05/M01 A3039 RMK AO2 T00481013
KPVJ 151815Z AUTO 02017G23KT 10SM OVC026 05/M01 A3039 RMK AO2 T00461011
KPVJ 151755Z AUTO 04014G22KT 10SM OVC028 05/M01 A3038 RMK AO2 T00521007 10069 21028
KPVJ 151735Z AUTO 03014G22KT 10SM BKN028 06/00 A3038 RMK AO2 T00611005
KPVJ 151715Z AUTO 04014G22KT 10SM SCT028 06/M01 A3038 RMK AO2 T00621008
KPVJ 151655Z AUTO 05012G20KT 10SM CLR 07/M01 A3039 RMK AO2 T00651008
KPVJ 151635Z AUTO 05013G22KT 10SM CLR 06/M01 A3038 RMK AO2 T00561012
KPVJ 151615Z AUTO 05011G16KT 10SM CLR 04/M03 A3036 RMK AO2 T00441029
KPVJ 151555Z AUTO 02011KT 10SM CLR 04/M03 A3036 RMK AO2 T00351034
KPVJ 151535Z AUTO 02006KT 10SM CLR 02/M04 A3035 RMK AO2 T00221037
KPVJ 151515Z AUTO 01005KT 10SM CLR 02/M04 A3034 RMK AO2 T00151040